createdAt,value
2018-03-26T00:00:52.140Z,1005.71
2018-03-26T00:02:45.144Z,1005.74
2018-03-26T00:03:45.180Z,1005.74
2018-03-26T00:05:38.161Z,1005.74
2018-03-26T00:06:38.220Z,1005.74
2018-03-26T00:08:31.222Z,1005.72
2018-03-26T00:09:31.266Z,1005.76
2018-03-26T00:11:24.264Z,1005.72
2018-03-26T00:12:24.300Z,1005.76
2018-03-26T00:14:17.281Z,1005.79
2018-03-26T00:15:17.340Z,1005.76
2018-03-26T00:17:10.342Z,1005.76
2018-03-26T00:18:10.379Z,1005.85
2018-03-26T00:20:03.364Z,1005.84
2018-03-26T00:21:03.417Z,1005.86
2018-03-26T00:22:56.420Z,1005.90
2018-03-26T00:23:56.461Z,1005.92
2018-03-26T00:25:49.439Z,1005.89
2018-03-26T00:26:49.498Z,1005.92
2018-03-26T00:28:42.498Z,1005.88
2018-03-26T00:29:42.535Z,1005.91
2018-03-26T00:31:35.539Z,1005.88
2018-03-26T00:32:35.578Z,1005.90
2018-03-26T00:34:28.553Z,1005.86
2018-03-26T00:35:28.610Z,1005.85
2018-03-26T00:37:21.615Z,1005.86
2018-03-26T00:38:21.650Z,1005.87
2018-03-26T00:40:14.637Z,1005.84
2018-03-26T00:41:14.689Z,1005.88
2018-03-26T00:43:07.691Z,1005.88
2018-03-26T00:44:07.728Z,1005.86
2018-03-26T00:46:00.714Z,1005.88
2018-03-26T00:47:00.769Z,1005.88
2018-03-26T00:48:53.780Z,1005.90
2018-03-26T00:49:53.803Z,1005.88
2018-03-26T00:51:46.787Z,1005.92
2018-03-26T00:52:46.840Z,1005.94
2018-03-26T00:54:39.845Z,1005.93
2018-03-26T00:55:39.881Z,1005.97
2018-03-26T00:57:32.890Z,1005.98
2018-03-26T00:58:32.926Z,1006.00
2018-03-26T01:00:25.906Z,1006.00
2018-03-26T01:01:25.964Z,1006.00
2018-03-26T01:03:18.967Z,1005.99
2018-03-26T01:04:19.003Z,1006.02
2018-03-26T01:06:11.981Z,1006.02
2018-03-26T01:07:12.038Z,1006.02
2018-03-26T01:09:05.050Z,1006.03
2018-03-26T01:10:05.089Z,1006.01
2018-03-26T01:11:58.069Z,1006.03
2018-03-26T01:12:58.158Z,1006.05
2018-03-26T01:14:51.126Z,1006.06
2018-03-26T01:15:51.164Z,1006.09
2018-03-26T01:17:44.165Z,1006.11
2018-03-26T01:18:44.201Z,1006.09
2018-03-26T01:20:37.183Z,1006.12
2018-03-26T01:21:37.241Z,1006.16
2018-03-26T01:23:30.244Z,1006.15
2018-03-26T01:24:30.278Z,1006.18
2018-03-26T01:26:23.264Z,1006.19
2018-03-26T01:27:23.321Z,1006.18
2018-03-26T01:29:16.331Z,1006.24
2018-03-26T01:30:16.366Z,1006.23
2018-03-26T01:32:09.351Z,1006.24
2018-03-26T01:33:09.402Z,1006.20
2018-03-26T01:35:02.404Z,1006.25
2018-03-26T01:36:02.440Z,1006.28
2018-03-26T01:37:55.418Z,1006.26
2018-03-26T01:38:55.477Z,1006.32
2018-03-26T01:40:48.478Z,1006.30
2018-03-26T01:41:48.513Z,1006.33
2018-03-26T01:43:41.523Z,1006.38
2018-03-26T01:44:41.559Z,1006.37
2018-03-26T01:46:34.542Z,1006.42
2018-03-26T01:47:34.602Z,1006.43
2018-03-26T01:49:27.603Z,1006.45
2018-03-26T01:50:27.640Z,1006.48
2018-03-26T01:52:20.618Z,1006.54
2018-03-26T01:53:20.675Z,1006.54
2018-03-26T01:55:13.677Z,1006.55
2018-03-26T01:56:13.714Z,1006.56
2018-03-26T01:58:06.698Z,1006.54
2018-03-26T01:59:06.770Z,1006.53
2018-03-26T02:00:59.755Z,1006.54
2018-03-26T02:01:59.791Z,1006.61
2018-03-26T02:03:52.798Z,1006.57
2018-03-26T02:04:52.834Z,1006.57
2018-03-26T02:06:45.856Z,1006.63
2018-03-26T02:07:45.913Z,1006.59
2018-03-26T02:09:38.918Z,1006.63
2018-03-26T02:10:38.955Z,1006.63
2018-03-26T02:12:31.940Z,1006.65
2018-03-26T02:13:31.996Z,1006.65
2018-03-26T02:15:24.998Z,1006.67
2018-03-26T02:16:25.035Z,1006.65
2018-03-26T02:18:18.017Z,1006.60
2018-03-26T02:19:18.071Z,1006.63
2018-03-26T02:21:11.076Z,1006.61
2018-03-26T02:22:11.111Z,1006.57
2018-03-26T02:24:04.130Z,1006.60
2018-03-26T02:25:04.155Z,1006.58
2018-03-26T02:26:57.138Z,1006.59
2018-03-26T02:27:57.188Z,1006.63
2018-03-26T02:29:50.191Z,1006.63
2018-03-26T02:30:50.228Z,1006.68
2018-03-26T02:32:43.210Z,1006.65
2018-03-26T02:33:43.267Z,1006.68
2018-03-26T02:35:36.267Z,1006.65
2018-03-26T02:36:36.311Z,1006.67
2018-03-26T02:38:29.290Z,1006.68
2018-03-26T02:39:29.343Z,1006.68
2018-03-26T02:41:22.855Z,1006.72
2018-03-26T02:42:22.887Z,1006.69
2018-03-26T02:44:15.871Z,1006.75
2018-03-26T02:45:15.932Z,1006.75
2018-03-26T02:47:08.930Z,1006.76
2018-03-26T02:48:08.967Z,1006.76
2018-03-26T02:50:01.947Z,1006.76
2018-03-26T02:51:02.010Z,1006.72
2018-03-26T02:52:55.008Z,1006.73
2018-03-26T02:53:55.045Z,1006.73
2018-03-26T02:55:48.045Z,1006.74
2018-03-26T02:56:48.080Z,1006.73
2018-03-26T02:58:41.059Z,1006.71
2018-03-26T02:59:41.116Z,1006.75
2018-03-26T03:01:34.117Z,1006.75
2018-03-26T03:02:34.152Z,1006.79
2018-03-26T03:04:27.138Z,1006.80
2018-03-26T03:05:27.197Z,1006.80
2018-03-26T03:07:20.200Z,1006.83
2018-03-26T03:08:20.232Z,1006.83
2018-03-26T03:10:13.208Z,1006.87
2018-03-26T03:11:13.268Z,1006.83
2018-03-26T03:13:06.266Z,1006.82
2018-03-26T03:14:06.301Z,1006.84
2018-03-26T03:15:59.279Z,1006.82
2018-03-26T03:16:59.336Z,1006.81
2018-03-26T03:18:52.337Z,1006.83
2018-03-26T03:19:52.374Z,1006.81
2018-03-26T03:21:45.379Z,1006.78
2018-03-26T03:22:45.412Z,1006.80
2018-03-26T03:24:38.396Z,1006.77
2018-03-26T03:25:38.454Z,1006.78
2018-03-26T03:27:31.453Z,1006.84
2018-03-26T03:28:31.492Z,1006.86
2018-03-26T03:30:24.475Z,1006.84
2018-03-26T03:31:24.534Z,1006.83
2018-03-26T03:33:17.536Z,1006.82
2018-03-26T03:34:17.575Z,1006.83
2018-03-26T03:36:10.554Z,1006.84
2018-03-26T03:37:10.613Z,1006.85
2018-03-26T03:39:03.616Z,1006.87
2018-03-26T03:40:03.654Z,1006.85
2018-03-26T03:41:56.653Z,1006.91
2018-03-26T03:42:56.690Z,1006.88
2018-03-26T03:44:49.675Z,1006.91
2018-03-26T03:45:49.731Z,1006.95
2018-03-26T03:47:42.733Z,1006.96
2018-03-26T03:48:42.770Z,1006.96
2018-03-26T03:50:35.752Z,1006.92
2018-03-26T03:51:35.812Z,1006.94
2018-03-26T03:53:28.810Z,1006.93
2018-03-26T03:54:28.845Z,1006.89
2018-03-26T03:56:21.824Z,1006.86
2018-03-26T03:57:21.884Z,1006.86
2018-03-26T03:59:14.883Z,1006.86
2018-03-26T04:00:14.918Z,1006.85
2018-03-26T04:02:07.903Z,1006.86
2018-03-26T04:03:07.957Z,1006.88
2018-03-26T04:05:00.957Z,1006.85
2018-03-26T04:06:00.991Z,1006.89
2018-03-26T04:07:54.001Z,1006.91
2018-03-26T04:08:54.038Z,1006.89
2018-03-26T04:10:47.023Z,1006.93
2018-03-26T04:11:47.076Z,1006.95
2018-03-26T04:13:40.082Z,1006.96
2018-03-26T04:14:40.118Z,1006.97
2018-03-26T04:16:33.102Z,1006.97
2018-03-26T04:17:33.159Z,1007.00
2018-03-26T04:19:26.159Z,1007.01
2018-03-26T04:20:26.198Z,1007.00
2018-03-26T04:22:19.179Z,1007.03
2018-03-26T04:23:19.238Z,1007.04
2018-03-26T04:25:12.236Z,1007.06
2018-03-26T04:26:12.272Z,1007.12
2018-03-26T04:28:05.286Z,1007.11
2018-03-26T04:29:05.321Z,1007.18
2018-03-26T04:30:58.307Z,1007.19
2018-03-26T04:31:58.407Z,1007.18
2018-03-26T04:33:51.361Z,1007.18
2018-03-26T04:34:51.397Z,1007.20
2018-03-26T04:36:44.381Z,1007.19
2018-03-26T04:37:44.435Z,1007.22
2018-03-26T04:39:37.434Z,1007.18
2018-03-26T04:40:37.476Z,1007.21
2018-03-26T04:42:30.457Z,1007.23
2018-03-26T04:43:30.511Z,1007.23
2018-03-26T04:45:23.517Z,1007.23
2018-03-26T04:46:23.550Z,1007.18
2018-03-26T04:48:16.531Z,1007.19
2018-03-26T04:49:16.589Z,1007.20
2018-03-26T04:51:09.596Z,1007.19
2018-03-26T04:52:09.630Z,1007.20
2018-03-26T04:54:02.640Z,1007.23
2018-03-26T04:55:02.671Z,1007.23
2018-03-26T04:56:55.647Z,1007.24
2018-03-26T04:57:55.704Z,1007.26
2018-03-26T04:59:48.711Z,1007.29
2018-03-26T05:00:48.747Z,1007.32
2018-03-26T05:02:41.734Z,1007.35
2018-03-26T05:03:41.786Z,1007.35
2018-03-26T05:05:34.796Z,1007.32
2018-03-26T05:06:34.825Z,1007.33
2018-03-26T05:08:27.807Z,1007.30
2018-03-26T05:09:27.859Z,1007.36
2018-03-26T05:11:20.864Z,1007.37
2018-03-26T05:12:20.898Z,1007.41
2018-03-26T05:14:13.899Z,1007.44
2018-03-26T05:15:13.935Z,1007.42
2018-03-26T05:17:06.919Z,1007.41
2018-03-26T05:18:06.976Z,1007.44
2018-03-26T05:19:59.979Z,1007.49
2018-03-26T05:21:00.014Z,1007.47
2018-03-26T05:22:52.998Z,1007.49
2018-03-26T05:23:53.063Z,1007.51
2018-03-26T05:25:46.067Z,1007.55
2018-03-26T05:26:46.096Z,1007.55
2018-03-26T05:28:39.080Z,1007.60
2018-03-26T05:29:39.132Z,1007.60
2018-03-26T05:31:32.132Z,1007.64
2018-03-26T05:32:32.169Z,1007.68
2018-03-26T05:34:25.156Z,1007.68
2018-03-26T05:35:25.212Z,1007.72
2018-03-26T05:37:18.214Z,1007.77
2018-03-26T05:38:18.251Z,1007.75
2018-03-26T05:40:11.251Z,1007.76
2018-03-26T05:41:11.286Z,1007.81
2018-03-26T05:43:04.275Z,1007.83
2018-03-26T05:44:04.323Z,1007.84
2018-03-26T05:45:57.329Z,1007.92
2018-03-26T05:46:57.365Z,1007.90
2018-03-26T05:48:50.368Z,1007.95
2018-03-26T05:49:50.406Z,1007.99
2018-03-26T05:51:43.412Z,1008.01
2018-03-26T05:52:43.449Z,1007.99
2018-03-26T05:54:36.435Z,1008.03
2018-03-26T05:55:36.492Z,1008.03
2018-03-26T05:57:29.493Z,1008.03
2018-03-26T05:58:29.533Z,1008.06
2018-03-26T06:00:22.528Z,1008.09
2018-03-26T06:01:22.564Z,1008.10
2018-03-26T06:03:15.542Z,1008.09
2018-03-26T06:04:15.600Z,1008.11
2018-03-26T06:06:08.614Z,1008.15
2018-03-26T06:07:08.640Z,1008.15
2018-03-26T06:09:01.623Z,1008.19
2018-03-26T06:10:01.681Z,1008.25
2018-03-26T06:11:54.731Z,1008.25
2018-03-26T06:12:54.722Z,1008.26
2018-03-26T06:14:47.707Z,1008.28
2018-03-26T06:15:47.767Z,1008.26
2018-03-26T06:17:40.767Z,1008.25
2018-03-26T06:18:40.802Z,1008.28
2018-03-26T06:20:33.779Z,1008.33
2018-03-26T06:21:33.838Z,1008.31
2018-03-26T06:23:26.839Z,1008.33
2018-03-26T06:24:26.877Z,1008.37
2018-03-26T06:26:19.881Z,1008.37
2018-03-26T06:27:19.909Z,1008.38
2018-03-26T06:29:12.895Z,1008.38
2018-03-26T06:30:12.949Z,1008.38
2018-03-26T06:32:05.959Z,1008.40
2018-03-26T06:33:05.990Z,1008.41
2018-03-26T06:34:58.981Z,1008.47
2018-03-26T06:35:59.026Z,1008.46
2018-03-26T06:37:52.029Z,1008.49
2018-03-26T06:38:52.066Z,1008.56
2018-03-26T06:40:45.046Z,1008.60
2018-03-26T06:41:45.103Z,1008.62
2018-03-26T06:43:38.111Z,1008.63
2018-03-26T06:44:38.144Z,1008.65
2018-03-26T06:46:31.129Z,1008.61
2018-03-26T06:47:31.304Z,1008.60
2018-03-26T06:49:24.187Z,1008.65
2018-03-26T06:50:24.223Z,1008.68
2018-03-26T06:52:17.227Z,1008.67
2018-03-26T06:53:17.263Z,1008.70
2018-03-26T06:55:10.248Z,1008.73
2018-03-26T06:56:10.301Z,1008.75
2018-03-26T06:58:03.302Z,1008.75
2018-03-26T06:59:03.338Z,1008.77
2018-03-26T07:00:56.324Z,1008.81
2018-03-26T07:01:56.379Z,1008.83
2018-03-26T07:03:49.381Z,1008.88
2018-03-26T07:04:49.419Z,1008.92
2018-03-26T07:06:42.409Z,1009.11
2018-03-26T07:07:42.486Z,1009.13
2018-03-26T07:09:35.467Z,1009.16
2018-03-26T07:10:35.504Z,1009.19
2018-03-26T07:12:28.533Z,1009.14
2018-03-26T07:13:28.548Z,1010.15
2018-03-26T07:15:21.556Z,1010.51
2018-03-26T07:16:21.596Z,1010.57
2018-03-26T07:18:14.606Z,1010.73
2018-03-26T07:19:14.645Z,1011.02
2018-03-26T07:21:07.637Z,1011.97
2018-03-26T07:22:07.692Z,1012.58
2018-03-26T07:24:00.704Z,1013.10
2018-03-26T07:25:00.741Z,1012.61
2018-03-26T07:26:53.730Z,1011.65
2018-03-26T07:27:53.789Z,1011.48
2018-03-26T07:29:46.806Z,1011.30
2018-03-26T07:30:46.849Z,1010.91
2018-03-26T07:32:39.843Z,1010.63
2018-03-26T07:33:39.907Z,1010.58
2018-03-26T07:35:32.925Z,1010.17
2018-03-26T07:36:32.967Z,1009.99
2018-03-26T07:38:26.000Z,1009.90
2018-03-26T07:39:26.030Z,1009.88
2018-03-26T07:41:19.077Z,1009.86
2018-03-26T07:42:19.092Z,1009.87
2018-03-26T07:44:12.115Z,1009.82
2018-03-26T07:45:12.160Z,1009.82
2018-03-26T07:47:05.158Z,1009.82
2018-03-26T07:48:05.230Z,1009.82
2018-03-26T07:49:58.305Z,1009.82
2018-03-26T07:50:58.286Z,1009.79
2018-03-26T07:52:51.287Z,1009.93
2018-03-26T07:53:51.355Z,1009.94
2018-03-26T07:55:44.384Z,1009.94
2018-03-26T07:56:44.427Z,1009.90
2018-03-26T07:58:37.432Z,1009.80
2018-03-26T07:59:37.495Z,1009.78
2018-03-26T08:01:30.520Z,1009.76
2018-03-26T08:02:30.567Z,1009.78
2018-03-26T08:04:23.623Z,1009.80
2018-03-26T08:05:23.640Z,1009.76
2018-03-26T08:07:16.646Z,1009.72
2018-03-26T08:08:16.734Z,1009.73
2018-03-26T08:10:09.740Z,1009.70
2018-03-26T08:11:09.787Z,1009.73
2018-03-26T08:13:02.791Z,1009.75
2018-03-26T08:14:02.860Z,1009.77
2018-03-26T08:15:55.900Z,1009.73
2018-03-26T08:16:55.971Z,1009.76
2018-03-26T08:18:48.942Z,1009.79
2018-03-26T08:19:49.011Z,1009.79
2018-03-26T08:21:42.045Z,1009.80
2018-03-26T08:22:42.092Z,1009.82
2018-03-26T08:24:35.119Z,1009.83
2018-03-26T08:25:35.167Z,1009.80
2018-03-26T08:27:28.174Z,1009.85
2018-03-26T08:28:28.239Z,1009.89
2018-03-26T08:30:21.265Z,1009.90
2018-03-26T08:31:21.310Z,1009.88
2018-03-26T08:33:14.326Z,1009.89
2018-03-26T08:34:14.390Z,1009.91
2018-03-26T08:36:07.429Z,1009.94
2018-03-26T08:37:07.466Z,1009.91
2018-03-26T08:39:00.465Z,1009.96
2018-03-26T08:40:00.534Z,1009.94
2018-03-26T08:41:53.563Z,1009.96
2018-03-26T08:42:53.609Z,1010.00
2018-03-26T08:44:46.612Z,1010.00
2018-03-26T08:45:46.684Z,1009.98
2018-03-26T08:47:39.710Z,1009.98
2018-03-26T08:48:39.755Z,1010.01
2018-03-26T08:50:32.782Z,1010.04
2018-03-26T08:51:32.832Z,1010.01
2018-03-26T08:53:25.835Z,1010.00
2018-03-26T08:54:25.905Z,1010.03
2018-03-26T08:56:18.946Z,1010.05
2018-03-26T08:57:18.990Z,1010.04
2018-03-26T08:59:11.995Z,1010.02
2018-03-26T09:00:12.065Z,1009.97
2018-03-26T09:02:05.090Z,1009.97
2018-03-26T09:03:05.138Z,1009.98
2018-03-26T09:04:58.153Z,1009.97
2018-03-26T09:05:58.220Z,1009.93
2018-03-26T09:07:51.245Z,1009.95
2018-03-26T09:08:51.293Z,1009.92
2018-03-26T09:10:44.321Z,1009.82
2018-03-26T09:11:44.366Z,1009.86
2018-03-26T09:13:37.370Z,1009.84
2018-03-26T09:14:37.436Z,1009.83
2018-03-26T09:16:30.465Z,1009.89
2018-03-26T09:17:30.544Z,1009.83
2018-03-26T09:19:23.512Z,1009.83
2018-03-26T09:20:23.581Z,1009.82
2018-03-26T09:22:16.597Z,1009.84
2018-03-26T09:23:16.643Z,1009.83
2018-03-26T09:25:09.638Z,1009.83
2018-03-26T09:26:09.701Z,1009.87
2018-03-26T09:28:02.740Z,1009.86
2018-03-26T09:29:02.762Z,1009.82
2018-03-26T09:30:55.767Z,1009.86
2018-03-26T09:31:55.835Z,1009.82
2018-03-26T09:33:48.845Z,1009.89
2018-03-26T09:34:48.944Z,1009.90
2018-03-26T09:36:41.900Z,1009.89
2018-03-26T09:37:41.940Z,1009.85
2018-03-26T09:39:34.937Z,1009.84
2018-03-26T09:40:35.058Z,1009.86
2018-03-26T09:42:28.017Z,1009.81
2018-03-26T09:43:28.059Z,1009.82
2018-03-26T09:45:21.055Z,1009.84
2018-03-26T09:46:21.116Z,1009.87
2018-03-26T09:48:14.132Z,1009.82
2018-03-26T09:49:14.173Z,1009.80
2018-03-26T09:51:07.163Z,1009.80
2018-03-26T09:52:07.277Z,1009.78
2018-03-26T09:54:00.236Z,1009.74
2018-03-26T09:55:00.277Z,1009.76
2018-03-26T09:56:53.306Z,1009.79
2018-03-26T09:57:53.330Z,1009.78
2018-03-26T09:59:46.321Z,1009.78
2018-03-26T10:00:46.382Z,1009.78
2018-03-26T10:02:39.393Z,1009.77
2018-03-26T10:03:39.439Z,1009.78
2018-03-26T10:05:32.419Z,1009.76
2018-03-26T10:06:32.493Z,1009.76
2018-03-26T10:08:25.495Z,1009.76
2018-03-26T10:09:25.539Z,1009.80
2018-03-26T10:11:18.532Z,1009.80
2018-03-26T10:12:18.592Z,1009.84
2018-03-26T10:14:11.671Z,1009.84
2018-03-26T10:15:11.643Z,1009.80
2018-03-26T10:17:05.144Z,1009.80
2018-03-26T10:18:05.202Z,1009.79
2018-03-26T10:19:58.214Z,1009.74
2018-03-26T10:20:58.252Z,1009.74
2018-03-26T10:22:51.257Z,1009.84
2018-03-26T10:23:51.298Z,1009.82
2018-03-26T10:25:44.285Z,1009.80
2018-03-26T10:26:44.346Z,1009.85
2018-03-26T10:28:37.360Z,1009.83
2018-03-26T10:29:37.401Z,1009.87
2018-03-26T10:31:30.387Z,1009.85
2018-03-26T10:32:30.456Z,1009.82
2018-03-26T10:34:23.458Z,1009.88
2018-03-26T10:35:23.496Z,1009.88
2018-03-26T10:37:16.489Z,1009.86
2018-03-26T10:38:16.550Z,1009.91
2018-03-26T10:40:09.567Z,1009.91
2018-03-26T10:41:09.608Z,1009.93
2018-03-26T10:43:02.629Z,1009.97
2018-03-26T10:44:02.669Z,1010.04
2018-03-26T10:45:55.661Z,1009.98
2018-03-26T10:46:55.727Z,1010.01
2018-03-26T10:48:48.739Z,1009.98
2018-03-26T10:49:48.780Z,1009.99
2018-03-26T10:51:41.777Z,1009.98
2018-03-26T10:52:41.837Z,1009.93
2018-03-26T10:54:34.854Z,1009.98
2018-03-26T10:55:34.895Z,1009.97
2018-03-26T10:57:27.885Z,1010.00
2018-03-26T10:58:27.944Z,1010.00
2018-03-26T11:00:21.008Z,1010.00
2018-03-26T11:01:20.994Z,1009.96
2018-03-26T11:03:14.000Z,1010.06
2018-03-26T11:04:14.069Z,1010.06
2018-03-26T11:06:07.048Z,1010.03
2018-03-26T11:07:07.087Z,1010.06
2018-03-26T11:09:00.096Z,1010.00
2018-03-26T11:10:00.136Z,1010.05
2018-03-26T11:11:53.135Z,1010.06
2018-03-26T11:12:53.182Z,1010.05
2018-03-26T11:14:46.192Z,1010.06
2018-03-26T11:15:46.238Z,1010.05
2018-03-26T11:17:39.730Z,1010.05
2018-03-26T11:18:39.790Z,1010.10
2018-03-26T11:20:32.828Z,1010.04
2018-03-26T11:21:32.839Z,1010.02
2018-03-26T11:23:26.339Z,1010.02
2018-03-26T11:24:26.396Z,1009.99
2018-03-26T11:26:19.415Z,1010.04
2018-03-26T11:27:19.450Z,1010.01
2018-03-26T11:29:12.463Z,1010.00
2018-03-26T11:30:12.508Z,1010.03
2018-03-26T11:32:05.502Z,1010.02
2018-03-26T11:33:05.566Z,1009.98
2018-03-26T11:34:58.571Z,1010.01
2018-03-26T11:35:58.616Z,1010.02
2018-03-26T11:37:51.602Z,1010.03
2018-03-26T11:38:51.657Z,1009.95
2018-03-26T11:40:44.669Z,1009.98
2018-03-26T11:41:44.765Z,1009.97
2018-03-26T11:43:37.700Z,1009.98
2018-03-26T11:44:37.764Z,1010.01
2018-03-26T11:46:30.770Z,1010.03
2018-03-26T11:47:30.810Z,1009.99
2018-03-26T11:49:23.798Z,1010.07
2018-03-26T11:50:23.858Z,1010.05
2018-03-26T11:52:16.874Z,1010.04
2018-03-26T11:53:16.914Z,1010.06
2018-03-26T11:55:09.952Z,1010.03
2018-03-26T11:56:09.968Z,1010.06
2018-03-26T11:58:02.955Z,1010.01
2018-03-26T11:59:03.013Z,1010.06
2018-03-26T12:00:56.023Z,1010.02
2018-03-26T12:01:56.059Z,1010.02
2018-03-26T12:03:49.048Z,1010.04
2018-03-26T12:04:49.107Z,1010.08
2018-03-26T12:06:42.121Z,1010.07
2018-03-26T12:07:42.165Z,1010.03
2018-03-26T12:09:35.148Z,1010.02
2018-03-26T12:10:35.209Z,1009.96
2018-03-26T12:12:28.229Z,1010.00
2018-03-26T12:13:28.270Z,1009.96
2018-03-26T12:15:21.276Z,1009.95
2018-03-26T12:16:21.316Z,1009.96
2018-03-26T12:18:14.317Z,1009.95
2018-03-26T12:19:14.386Z,1009.95
2018-03-26T12:21:07.385Z,1009.95
2018-03-26T12:22:07.470Z,1009.94
2018-03-26T12:24:00.921Z,1009.96
2018-03-26T12:25:01.015Z,1009.93
2018-03-26T12:26:53.991Z,1009.95
2018-03-26T12:27:54.024Z,1009.94
2018-03-26T12:29:47.012Z,1009.96
2018-03-26T12:30:47.099Z,1009.96
2018-03-26T12:32:40.097Z,1009.94
2018-03-26T12:33:40.131Z,1009.96
2018-03-26T12:35:33.137Z,1009.96
2018-03-26T12:36:33.176Z,1009.91
2018-03-26T12:38:26.163Z,1009.91
2018-03-26T12:39:26.224Z,1009.92
2018-03-26T12:41:19.238Z,1009.90
2018-03-26T12:42:19.274Z,1009.91
2018-03-26T12:44:12.257Z,1009.92
2018-03-26T12:45:12.318Z,1009.88
2018-03-26T12:47:05.326Z,1009.87
2018-03-26T12:48:05.361Z,1009.87
2018-03-26T12:49:58.346Z,1009.84
2018-03-26T12:50:58.406Z,1009.84
2018-03-26T12:52:51.916Z,1009.87
2018-03-26T12:53:51.952Z,1009.87
2018-03-26T12:55:44.975Z,1009.85
2018-03-26T12:56:44.996Z,1009.87
2018-03-26T12:58:37.989Z,1009.88
2018-03-26T12:59:38.049Z,1009.85
2018-03-26T13:01:31.054Z,1009.85
2018-03-26T13:02:31.104Z,1009.83
2018-03-26T13:04:24.081Z,1009.86
2018-03-26T13:05:24.142Z,1009.88
2018-03-26T13:07:17.159Z,1009.87
2018-03-26T13:08:17.197Z,1009.89
2018-03-26T13:10:10.185Z,1009.85
2018-03-26T13:11:10.250Z,1009.86
2018-03-26T13:13:03.254Z,1009.86
2018-03-26T13:14:03.293Z,1009.86
2018-03-26T13:15:56.281Z,1009.83
2018-03-26T13:16:56.340Z,1009.88
2018-03-26T13:18:49.354Z,1009.92
2018-03-26T13:19:49.392Z,1009.91
2018-03-26T13:21:42.383Z,1009.89
2018-03-26T13:22:42.442Z,1009.92
2018-03-26T13:24:35.952Z,1009.84
2018-03-26T13:25:35.993Z,1009.89
2018-03-26T13:27:28.996Z,1009.83
2018-03-26T13:28:29.036Z,1009.85
2018-03-26T13:30:22.031Z,1009.93
2018-03-26T13:31:22.094Z,1009.95
2018-03-26T13:33:15.100Z,1009.96
2018-03-26T13:34:15.139Z,1009.95
2018-03-26T13:36:08.123Z,1009.98
2018-03-26T13:37:08.183Z,1010.01
2018-03-26T13:39:01.192Z,1010.01
2018-03-26T13:40:01.234Z,1009.99
2018-03-26T13:41:54.241Z,1009.98
2018-03-26T13:42:54.279Z,1010.03
2018-03-26T13:44:47.304Z,1010.01
2018-03-26T13:45:47.325Z,1010.01
2018-03-26T13:47:40.349Z,1009.98
2018-03-26T13:48:40.374Z,1009.95
2018-03-26T13:50:33.369Z,1009.96
2018-03-26T13:51:34.432Z,1009.99
2018-03-26T13:53:26.434Z,1010.00
2018-03-26T13:54:26.474Z,1009.99
2018-03-26T13:56:19.465Z,1010.00
2018-03-26T13:57:19.527Z,1010.03
2018-03-26T13:59:12.536Z,1010.01
2018-03-26T14:00:12.577Z,1009.98
2018-03-26T14:02:05.565Z,1009.98
2018-03-26T14:03:05.623Z,1009.99
2018-03-26T14:04:59.136Z,1010.00
2018-03-26T14:05:58.669Z,1009.98
2018-03-26T14:07:51.660Z,1009.95
2018-03-26T14:08:51.720Z,1009.97
2018-03-26T14:10:44.729Z,1010.00
2018-03-26T14:11:44.767Z,1010.04
2018-03-26T14:13:37.754Z,1010.03
2018-03-26T14:14:37.820Z,1010.03
2018-03-26T14:16:30.831Z,1010.01
2018-03-26T14:17:30.869Z,1010.03
2018-03-26T14:19:23.856Z,1010.00
2018-03-26T14:20:23.910Z,1010.01
2018-03-26T14:22:16.930Z,1010.03
2018-03-26T14:23:16.969Z,1010.06
2018-03-26T14:25:09.978Z,1010.07
2018-03-26T14:26:10.033Z,1010.08
2018-03-26T14:28:03.505Z,1010.09
2018-03-26T14:29:03.566Z,1010.07
2018-03-26T14:30:56.575Z,1010.07
2018-03-26T14:31:56.615Z,1010.10
2018-03-26T14:33:49.599Z,1010.15
2018-03-26T14:34:49.661Z,1010.15
2018-03-26T14:36:42.686Z,1010.12
2018-03-26T14:37:42.722Z,1010.14
2018-03-26T14:39:35.719Z,1010.11
2018-03-26T14:40:35.781Z,1010.14
2018-03-26T14:42:28.789Z,1010.09
2018-03-26T14:43:28.826Z,1010.18
2018-03-26T14:45:21.820Z,1010.15
2018-03-26T14:46:21.873Z,1010.15
2018-03-26T14:48:14.905Z,1010.11
2018-03-26T14:49:14.944Z,1010.08
2018-03-26T14:51:07.951Z,1010.09
2018-03-26T14:52:07.990Z,1010.14
2018-03-26T14:54:00.976Z,1010.11
2018-03-26T14:55:01.032Z,1010.09
2018-03-26T14:56:54.046Z,1010.10
2018-03-26T14:57:55.045Z,1010.10
2018-03-26T14:59:47.066Z,1010.11
2018-03-26T15:00:47.126Z,1010.09
2018-03-26T15:02:40.129Z,1010.13
2018-03-26T15:03:40.168Z,1010.11
2018-03-26T15:05:33.158Z,1010.10
2018-03-26T15:06:33.221Z,1010.10
2018-03-26T15:08:26.231Z,1010.14
2018-03-26T15:09:26.262Z,1010.14
2018-03-26T15:11:19.251Z,1010.13
2018-03-26T15:12:19.306Z,1010.09
2018-03-26T15:14:12.348Z,1010.13
2018-03-26T15:15:12.424Z,1010.15
2018-03-26T15:17:05.409Z,1010.13
2018-03-26T15:18:05.403Z,1010.15
2018-03-26T15:19:58.388Z,1010.16
2018-03-26T15:20:58.447Z,1010.20
2018-03-26T15:22:51.971Z,1010.21
2018-03-26T15:23:52.007Z,1010.17
2018-03-26T15:25:44.997Z,1010.17
2018-03-26T15:26:45.059Z,1010.14
2018-03-26T15:28:38.059Z,1010.16
2018-03-26T15:29:38.098Z,1010.21
2018-03-26T15:31:31.112Z,1010.20
2018-03-26T15:32:31.143Z,1010.22
2018-03-26T15:34:24.150Z,1010.23
2018-03-26T15:35:24.235Z,1010.26
2018-03-26T15:37:17.183Z,1010.23
2018-03-26T15:38:17.232Z,1010.24
2018-03-26T15:40:10.241Z,1010.24
2018-03-26T15:41:10.280Z,1010.30
2018-03-26T15:43:03.283Z,1010.27
2018-03-26T15:44:03.363Z,1010.26
2018-03-26T15:45:56.326Z,1010.27
2018-03-26T15:46:56.366Z,1010.28
2018-03-26T15:48:49.370Z,1010.25
2018-03-26T15:49:49.409Z,1010.27
2018-03-26T15:51:42.436Z,1010.24
2018-03-26T15:52:42.453Z,1010.25
2018-03-26T15:54:35.468Z,1010.29
2018-03-26T15:55:35.505Z,1010.30
2018-03-26T15:57:30.046Z,1010.30
2018-03-26T15:58:30.079Z,1010.24
2018-03-26T16:00:23.648Z,1010.25
2018-03-26T16:01:23.635Z,1010.29
2018-03-26T16:03:16.642Z,1010.29
2018-03-26T16:04:16.679Z,1010.24
2018-03-26T16:06:09.665Z,1010.32
2018-03-26T16:07:10.693Z,1010.29
2018-03-26T16:09:02.728Z,1010.29
2018-03-26T16:10:02.769Z,1010.33
2018-03-26T16:11:55.749Z,1010.30
2018-03-26T16:12:55.811Z,1010.31
2018-03-26T16:14:48.815Z,1010.30
2018-03-26T16:15:48.856Z,1010.34
2018-03-26T16:17:41.860Z,1010.29
2018-03-26T16:18:41.910Z,1010.28
2018-03-26T16:20:34.918Z,1010.32
2018-03-26T16:21:34.953Z,1010.28
2018-03-26T16:23:27.942Z,1010.35
2018-03-26T16:24:28.005Z,1010.32
2018-03-26T16:26:21.002Z,1010.29
2018-03-26T16:27:21.040Z,1010.28
2018-03-26T16:29:14.052Z,1010.22
2018-03-26T16:30:14.088Z,1010.23
2018-03-26T16:32:07.081Z,1010.28
2018-03-26T16:33:07.142Z,1010.24
2018-03-26T16:35:00.151Z,1010.28
2018-03-26T16:36:00.195Z,1010.30
2018-03-26T16:37:54.671Z,1010.28
2018-03-26T16:38:54.734Z,1010.31
2018-03-26T16:40:47.740Z,1010.33
2018-03-26T16:41:47.783Z,1010.33
2018-03-26T16:43:40.763Z,1010.32
2018-03-26T16:44:40.857Z,1010.32
2018-03-26T16:46:33.827Z,1010.32
2018-03-26T16:47:33.865Z,1010.30
2018-03-26T16:49:26.872Z,1010.33
2018-03-26T16:50:26.906Z,1010.35
2018-03-26T16:52:19.903Z,1010.28
2018-03-26T16:53:19.964Z,1010.29
2018-03-26T16:55:12.964Z,1010.28
2018-03-26T16:56:13.001Z,1010.27
2018-03-26T16:58:05.988Z,1010.24
2018-03-26T16:59:06.042Z,1010.27
2018-03-26T17:00:59.047Z,1010.27
2018-03-26T17:01:59.084Z,1010.27
2018-03-26T17:03:52.074Z,1010.22
2018-03-26T17:04:52.131Z,1010.23
2018-03-26T17:06:45.143Z,1010.32
2018-03-26T17:07:45.189Z,1010.33
2018-03-26T17:09:38.176Z,1010.36
2018-03-26T17:10:38.225Z,1010.31
2018-03-26T17:12:31.246Z,1010.31
2018-03-26T17:13:31.287Z,1010.33
2018-03-26T17:15:24.277Z,1010.24
2018-03-26T17:16:24.317Z,1010.26
2018-03-26T17:18:17.306Z,1010.30
2018-03-26T17:19:17.366Z,1010.36
2018-03-26T17:21:10.376Z,1010.29
2018-03-26T17:22:10.413Z,1010.30
2018-03-26T17:24:03.455Z,1010.29
2018-03-26T17:25:03.458Z,1010.32
2018-03-26T17:26:56.466Z,1010.27